Pagina principale
METAR-TAF:

METAR-TAF

Aeroporti :

Payerne, Svizzera

latitudine: 46-49N, longitudine: 006-57E, altezza: 490 m

Osservazione

Il bollettino è stato emesso 45 minuti fa, alle 19:50 UTC
Vento 4 kt da ovest
Temperature 15°C
Umidità 77%
Pressione 1014 hPa
Visibilità 10 km o più
Nubi sparse ad un'altezza di 7700 ft
Nuvoloso ad un'altezza di 9600 ft

METAR: LSMP 251950Z AUTO 27004KT 9999NDV SCT077 BKN096 15/11 Q1014 RMK

Ora: 22:35 (20:35 UTC)


TAF: mancante

Osservazioni e previsioni meteorologiche di più di 4000 aeroporti (messaggi METAR e TAF).

Le stazioni disponibili sono rappresentate dai dischi gialli e rossi sulla carta.

Puntare il mouse per vedere il nome della stazione.

Clicca sopra per visualizzare le osservazioni e previsioni meteorologiche.

Per cambiare la mappa : fare clic sui pulsanti verdi con una croce nera per ingrandire, il pulsante verde con un trattino per diminuire, o sulla freccia verde per le mappe adiacenti.


METAR-TAF: